This is the latest recevied weather packets stored in our database for station/object OK1ZDJ-13. If no packets are shown the sender has not sent any weather packets the latest 10 day(s).
| Time | Temp. | Humidity | Pressure | Rain* | Wind** | Luminosity | Snow |
|---|---|---|---|---|---|---|---|
| 1777871880 | 12.78° C | 62% | 1015.9 hPa | - | - | - | - |
| 1777871280 | 11.67° C | 69% | 1015.8 hPa | - | - | - | - |
| 1777870679 | 11.11° C | 66% | 1015.7 hPa | - | - | - | - |
| 1777870079 | 10.56° C | 69% | 1015.5 hPa | - | - | - | - |
| 1777869480 | 10° C | 67% | 1015.3 hPa | - | - | - | - |
| 1777868879 | 9.44° C | 69% | 1015.3 hPa | - | - | - | - |
| 1777868280 | 8.89° C | 70% | 1015.5 hPa | - | - | - | - |
| 1777867680 | 8.89° C | 70% | 1015.6 hPa | - | - | - | - |
| 1777867079 | 8.89° C | 69% | 1015.6 hPa | - | - | - | - |
| 1777866480 | 8.33° C | 71% | 1015.4 hPa | - | - | - | - |
| 1777865884 | 8.33° C | 69% | 1015.5 hPa | - | - | - | - |
| 1777865278 | 8.89° C | 67% | 1015.6 hPa | - | - | - | - |
| 1777864678 | 8.89° C | 66% | 1015.5 hPa | - | - | - | - |
| 1777864078 | 8.89° C | 66% | 1015.5 hPa | - | - | - | - |
| 1777863478 | 9.44° C | 64% | 1015.5 hPa | - | - | - | - |
| 1777862878 | 10° C | 63% | 1015.5 hPa | - | - | - | - |
| 1777861078 | 10° C | 64% | 1015.3 hPa | - | - | - | - |
| 1777860478 | 10° C | 63% | 1015.3 hPa | - | - | - | - |
| 1777859878 | 10° C | 62% | 1015.1 hPa | - | - | - | - |
| 1777859278 | 10° C | 62% | 1014.9 hPa | - | - | - | - |
| 1777858678 | 10° C | 61% | 1015 hPa | - | - | - | - |
| 1777858079 | 10.56° C | 60% | 1015 hPa | - | - | - | - |
| 1777857478 | 10.56° C | 58% | 1015 hPa | - | - | - | - |
| 1777856878 | 10.56° C | 58% | 1015 hPa | - | - | - | - |
| 1777856278 | 11.11° C | 58% | 1014.9 hPa | - | - | - | - |
* Rain since midnight (hover to see other rain measurements)
** Current wind speed in m/s (hover to see current wind gust speed)